createdAt,value
2019-05-02T00:00:15.122Z,69.80
2019-05-02T00:02:44.471Z,75.40
2019-05-02T00:05:16.251Z,75.53
2019-05-02T00:07:45.676Z,80.33
2019-05-02T00:10:20.016Z,75.67
2019-05-02T00:12:50.487Z,74.50
2019-05-02T00:15:19.998Z,74.77
2019-05-02T00:17:49.247Z,70.60
2019-05-02T00:20:21.317Z,68.10
2019-05-02T00:22:52.283Z,75.00
2019-05-02T00:25:20.790Z,69.40
2019-05-02T00:27:50.120Z,76.43
2019-05-02T00:30:19.889Z,69.00
2019-05-02T00:32:53.274Z,73.23
2019-05-02T00:35:20.183Z,66.40
2019-05-02T00:37:49.429Z,64.90
2019-05-02T00:40:20.120Z,76.83
2019-05-02T00:42:53.358Z,67.60
2019-05-02T00:45:23.913Z,72.13
2019-05-02T00:48:05.569Z,65.03
2019-05-02T00:50:40.680Z,62.30
2019-05-02T00:53:12.252Z,70.13
2019-05-02T00:55:41.709Z,66.83
2019-05-02T00:58:10.951Z,72.80
2019-05-02T01:00:42.245Z,78.77
2019-05-02T01:03:16.245Z,73.73
2019-05-02T01:05:42.476Z,68.60
2019-05-02T01:08:11.798Z,63.27
2019-05-02T01:10:41.037Z,66.07
2019-05-02T01:13:10.366Z,76.20
2019-05-02T01:15:44.136Z,70.73
2019-05-02T01:18:10.778Z,67.60
2019-05-02T01:20:40.030Z,65.17
2019-05-02T01:23:09.268Z,67.37
2019-05-02T01:25:38.520Z,75.23
2019-05-02T01:28:17.687Z,72.50
2019-05-02T01:31:05.594Z,65.73
2019-05-02T01:33:41.689Z,69.10
2019-05-02T01:36:14.870Z,64.63
2019-05-02T01:38:45.759Z,64.80
2019-05-02T01:41:15.003Z,64.90
2019-05-02T01:43:44.398Z,72.50
2019-05-02T01:46:16.951Z,67.30
2019-05-02T01:48:45.585Z,69.13
2019-05-02T01:51:15.423Z,74.47
2019-05-02T01:53:44.738Z,70.63
2019-05-02T01:56:13.978Z,70.47
2019-05-02T01:58:43.260Z,68.07
2019-05-02T02:01:16.343Z,77.67
2019-05-02T02:03:45.756Z,75.03
2019-05-02T02:06:14.472Z,69.60
2019-05-02T02:08:43.726Z,78.80
2019-05-02T02:11:13.042Z,69.60
2019-05-02T02:13:42.426Z,70.60
2019-05-02T02:16:11.735Z,62.53
2019-05-02T02:18:45.154Z,64.20
2019-05-02T02:21:25.620Z,65.57
2019-05-02T02:23:54.464Z,65.50
2019-05-02T02:26:24.987Z,59.37
2019-05-02T02:28:54.267Z,67.27
2019-05-02T02:31:23.518Z,60.73
2019-05-02T02:33:52.756Z,61.00
2019-05-02T02:36:31.041Z,66.17
2019-05-02T02:38:53.033Z,66.50
2019-05-02T02:41:22.542Z,60.97
2019-05-02T02:44:08.401Z,58.60
2019-05-02T02:46:40.119Z,62.93
2019-05-02T02:49:14.329Z,60.97
2019-05-02T02:51:40.428Z,65.10
2019-05-02T02:54:09.735Z,63.53
2019-05-02T02:56:40.747Z,63.33
2019-05-02T02:59:09.938Z,64.57
2019-05-02T03:01:39.194Z,56.17
2019-05-02T03:04:09.777Z,59.63
2019-05-02T03:06:45.197Z,64.50
2019-05-02T03:09:10.511Z,62.57
2019-05-02T03:11:47.184Z,64.43
2019-05-02T03:14:18.072Z,58.37
2019-05-02T03:16:49.569Z,60.23
2019-05-02T03:19:21.424Z,54.53
2019-05-02T03:22:01.203Z,61.53
2019-05-02T03:24:26.662Z,62.43
2019-05-02T03:26:58.427Z,58.03
2019-05-02T03:29:39.684Z,60.73
2019-05-02T03:32:25.579Z,51.90
2019-05-02T03:34:44.990Z,55.40
2019-05-02T03:37:03.414Z,55.30
2019-05-02T03:39:32.047Z,57.93
2019-05-02T03:42:04.769Z,57.37
2019-05-02T03:44:33.070Z,54.93
2019-05-02T03:47:05.001Z,59.07
2019-05-02T03:49:40.860Z,60.23
2019-05-02T03:52:06.835Z,53.60
2019-05-02T03:54:48.456Z,62.20
2019-05-02T03:57:08.222Z,55.80
2019-05-02T03:59:39.287Z,54.50
2019-05-02T04:02:14.155Z,54.97
2019-05-02T04:04:40.760Z,52.03
2019-05-02T04:07:10.209Z,61.30
2019-05-02T04:09:42.460Z,52.20
2019-05-02T04:12:18.919Z,53.83
2019-05-02T04:14:42.549Z,51.30
2019-05-02T04:17:12.138Z,52.87
2019-05-02T04:19:42.618Z,54.10
2019-05-02T04:22:12.502Z,53.13
2019-05-02T04:24:47.791Z,51.77
2019-05-02T04:27:13.714Z,52.43
2019-05-02T04:29:43.028Z,57.93
2019-05-02T04:32:14.520Z,50.70
2019-05-02T04:34:49.016Z,50.40
2019-05-02T04:37:14.512Z,48.73
2019-05-02T04:40:03.206Z,48.63
2019-05-02T04:42:30.091Z,59.60
2019-05-02T04:45:14.097Z,51.70
2019-05-02T04:47:30.750Z,51.57
2019-05-02T04:50:07.732Z,50.30
2019-05-02T04:52:48.245Z,51.93
2019-05-02T04:55:21.320Z,49.80
2019-05-02T04:57:47.366Z,53.17
2019-05-02T05:00:19.066Z,49.47
2019-05-02T05:02:50.907Z,45.53
2019-05-02T05:05:25.571Z,47.70
2019-05-02T05:07:53.133Z,49.00
2019-05-02T05:10:27.700Z,47.77
2019-05-02T05:13:00.876Z,47.33
2019-05-02T05:15:38.400Z,44.77
2019-05-02T05:18:04.625Z,49.03
2019-05-02T05:20:32.030Z,48.00
2019-05-02T05:23:22.403Z,48.03
2019-05-02T05:25:55.664Z,49.43
2019-05-02T05:28:24.315Z,50.10
2019-05-02T05:30:53.851Z,48.53
2019-05-02T05:33:23.102Z,53.73
2019-05-02T05:35:52.783Z,52.27
2019-05-02T05:38:22.923Z,52.50
2019-05-02T05:40:53.024Z,47.70
2019-05-02T05:43:44.787Z,46.90
2019-05-02T05:46:33.383Z,48.00
2019-05-02T05:49:02.878Z,52.63
2019-05-02T05:51:54.397Z,49.77
2019-05-02T05:54:22.446Z,48.53
2019-05-02T05:56:51.715Z,49.10
2019-05-02T05:59:28.126Z,53.73
2019-05-02T06:01:57.762Z,51.10
2019-05-02T06:04:32.726Z,53.23
2019-05-02T06:06:59.411Z,52.23
2019-05-02T06:09:31.266Z,51.37
2019-05-02T06:11:59.455Z,55.17
2019-05-02T06:14:28.726Z,52.63
2019-05-02T06:16:57.976Z,51.50
2019-05-02T06:19:27.239Z,47.27
2019-05-02T06:21:56.503Z,53.83
2019-05-02T06:24:25.761Z,55.83
2019-05-02T06:26:55.025Z,53.63
2019-05-02T06:29:24.278Z,58.47
2019-05-02T06:31:53.655Z,53.37
2019-05-02T06:34:22.933Z,51.97
2019-05-02T06:36:52.847Z,59.17
2019-05-02T06:39:22.102Z,51.97
2019-05-02T06:41:52.021Z,62.43
2019-05-02T06:44:23.734Z,55.63
2019-05-02T06:46:53.267Z,54.40
2019-05-02T06:49:24.129Z,55.60
2019-05-02T06:51:56.564Z,54.10
2019-05-02T06:54:24.555Z,56.63
2019-05-02T06:56:53.909Z,54.63
2019-05-02T06:59:23.233Z,58.77
2019-05-02T07:01:57.455Z,66.30
2019-05-02T07:04:25.065Z,60.97
2019-05-02T07:06:58.741Z,57.40
2019-05-02T07:09:39.490Z,56.57
2019-05-02T07:11:57.976Z,60.70
2019-05-02T07:14:27.598Z,61.87
2019-05-02T07:17:01.798Z,63.90
2019-05-02T07:19:32.701Z,60.10
2019-05-02T07:22:04.417Z,57.80
2019-05-02T07:24:33.346Z,57.73
2019-05-02T07:27:02.773Z,58.07
2019-05-02T07:29:32.134Z,58.50
2019-05-02T07:32:01.484Z,63.43
2019-05-02T07:34:30.830Z,61.27
2019-05-02T07:37:00.132Z,59.83
2019-05-02T07:39:29.483Z,60.63
2019-05-02T07:42:00.633Z,62.93
2019-05-02T07:44:32.547Z,63.00
2019-05-02T07:47:02.482Z,64.57
2019-05-02T07:49:51.650Z,63.83
2019-05-02T07:52:22.133Z,65.93
2019-05-02T07:54:51.423Z,66.83
2019-05-02T07:57:25.102Z,70.53
2019-05-02T07:59:54.954Z,72.73
2019-05-02T08:02:42.220Z,66.87
2019-05-02T08:05:15.838Z,62.97
2019-05-02T08:07:42.841Z,70.43
2019-05-02T08:10:16.408Z,66.87
2019-05-02T08:12:43.835Z,66.30
2019-05-02T08:15:15.190Z,72.40
2019-05-02T08:17:44.279Z,71.97
2019-05-02T08:20:19.006Z,70.53
2019-05-02T08:23:04.575Z,66.77
2019-05-02T08:25:33.848Z,69.83
2019-05-02T08:28:05.113Z,73.90
2019-05-02T08:30:56.772Z,75.20
2019-05-02T08:33:29.512Z,70.10
2019-05-02T08:35:56.960Z,69.03
2019-05-02T08:38:26.227Z,75.87
2019-05-02T08:41:19.958Z,63.00
2019-05-02T08:43:46.237Z,63.90
2019-05-02T08:46:15.924Z,68.83
2019-05-02T08:48:45.483Z,66.43
2019-05-02T08:51:14.736Z,61.47
2019-05-02T08:53:44.012Z,75.10
2019-05-02T08:56:16.060Z,61.33
2019-05-02T08:58:44.920Z,60.37
2019-05-02T09:01:15.487Z,64.73
2019-05-02T09:04:00.280Z,66.33
2019-05-02T09:06:17.204Z,64.27
2019-05-02T09:09:07.271Z,54.97
2019-05-02T09:11:37.459Z,54.83
2019-05-02T09:14:06.858Z,56.60
2019-05-02T09:16:36.136Z,53.47
2019-05-02T09:19:05.629Z,59.30
2019-05-02T09:21:36.104Z,59.20
2019-05-02T09:24:08.527Z,56.60
2019-05-02T09:26:38.716Z,53.20
2019-05-02T09:29:07.630Z,53.13
2019-05-02T09:31:41.353Z,50.27
2019-05-02T09:34:08.008Z,52.53
2019-05-02T09:36:38.205Z,49.37
2019-05-02T09:39:07.979Z,50.00
2019-05-02T09:41:38.619Z,50.60
2019-05-02T09:44:08.958Z,54.93
2019-05-02T09:46:38.898Z,50.20
2019-05-02T09:49:13.422Z,51.67
2019-05-02T09:51:39.235Z,52.13
2019-05-02T09:54:08.522Z,53.70
2019-05-02T09:56:37.833Z,53.90
2019-05-02T09:59:24.397Z,54.30
2019-05-02T10:01:41.984Z,57.30
2019-05-02T10:04:11.978Z,52.20
2019-05-02T10:07:02.542Z,55.03
2019-05-02T10:09:32.383Z,53.10
2019-05-02T10:12:02.237Z,54.97
2019-05-02T10:14:33.020Z,54.10
2019-05-02T10:17:06.975Z,52.77
2019-05-02T10:19:33.790Z,52.13
2019-05-02T10:22:03.034Z,56.33
2019-05-02T10:24:32.369Z,55.13
2019-05-02T10:27:06.466Z,53.57
2019-05-02T10:29:33.059Z,49.60
2019-05-02T10:32:02.552Z,47.80
2019-05-02T10:34:32.973Z,46.87
2019-05-02T10:37:03.115Z,51.07
2019-05-02T10:39:34.143Z,53.97
2019-05-02T10:42:03.702Z,48.83
2019-05-02T10:44:36.499Z,48.63
2019-05-02T10:47:05.767Z,44.93
2019-05-02T10:49:42.793Z,46.07
2019-05-02T10:52:12.297Z,43.17
2019-05-02T10:54:42.170Z,46.90
2019-05-02T10:57:12.591Z,44.27
2019-05-02T10:59:42.212Z,42.80
2019-05-02T11:02:34.133Z,43.70
2019-05-02T11:05:26.557Z,45.73
2019-05-02T11:08:04.727Z,45.80
2019-05-02T11:10:42.283Z,42.00
2019-05-02T11:13:15.799Z,41.60
2019-05-02T11:16:08.328Z,41.83
2019-05-02T11:19:02.812Z,37.63
2019-05-02T11:21:53.492Z,40.70
2019-05-02T11:24:22.494Z,38.60
2019-05-02T11:26:52.832Z,39.83
2019-05-02T11:29:22.916Z,40.37
2019-05-02T11:31:52.529Z,40.27
2019-05-02T11:34:22.224Z,43.10
2019-05-02T11:36:52.661Z,43.13
2019-05-02T11:39:31.557Z,39.47
2019-05-02T11:41:53.307Z,37.77
2019-05-02T11:44:22.718Z,36.57
2019-05-02T11:46:52.744Z,36.33
2019-05-02T11:49:22.737Z,36.80
2019-05-02T11:51:56.877Z,37.37
2019-05-02T11:54:23.380Z,36.97
2019-05-02T11:56:53.591Z,39.90
2019-05-02T11:59:28.185Z,39.10
2019-05-02T12:01:59.758Z,36.43
2019-05-02T12:04:26.828Z,39.03
2019-05-02T12:07:00.954Z,39.70
2019-05-02T12:09:28.902Z,36.90
2019-05-02T12:11:58.239Z,37.83
2019-05-02T12:14:32.852Z,35.97
2019-05-02T12:16:58.794Z,36.17
2019-05-02T12:19:28.083Z,34.55
2019-05-02T12:21:57.398Z,35.93
2019-05-02T12:24:26.721Z,33.30
2019-05-02T12:26:56.043Z,37.53
2019-05-02T12:29:26.877Z,36.27
2019-05-02T12:31:56.473Z,35.67
2019-05-02T12:34:25.943Z,36.13
2019-05-02T12:36:55.261Z,35.20
2019-05-02T12:39:24.539Z,35.90
2019-05-02T12:41:54.344Z,36.27
2019-05-02T12:44:23.997Z,34.87
2019-05-02T12:46:53.259Z,33.93
2019-05-02T12:49:27.667Z,31.43
2019-05-02T12:51:53.606Z,35.40
2019-05-02T12:54:22.922Z,37.93
2019-05-02T12:56:53.410Z,35.13
2019-05-02T12:59:22.713Z,36.83
2019-05-02T13:01:52.150Z,32.17
2019-05-02T13:04:22.953Z,30.60
2019-05-02T13:06:53.084Z,32.97
2019-05-02T13:09:23.428Z,32.73
2019-05-02T13:11:54.675Z,37.27
2019-05-02T13:14:25.715Z,35.73
2019-05-02T13:17:01.170Z,32.60
2019-05-02T13:19:37.083Z,31.90
2019-05-02T13:22:04.952Z,36.70
2019-05-02T13:24:42.398Z,33.93
2019-05-02T13:27:14.744Z,35.30
2019-05-02T13:29:44.430Z,36.63
2019-05-02T13:32:18.736Z,32.77
2019-05-02T13:35:04.830Z,33.90
2019-05-02T13:37:34.270Z,36.20
2019-05-02T13:40:09.005Z,32.50
2019-05-02T13:42:38.394Z,32.03
2019-05-02T13:45:12.698Z,33.83
2019-05-02T13:47:42.643Z,35.57
2019-05-02T13:50:12.968Z,34.00
2019-05-02T13:52:45.012Z,35.43
2019-05-02T13:55:15.174Z,35.10
2019-05-02T13:57:46.896Z,34.63
2019-05-02T14:00:18.163Z,34.73
2019-05-02T14:02:47.624Z,31.90
2019-05-02T14:05:17.102Z,34.70
2019-05-02T14:08:04.460Z,40.10
2019-05-02T14:10:39.244Z,37.27
2019-05-02T14:13:08.888Z,35.03
2019-05-02T14:15:39.448Z,34.27
2019-05-02T14:18:08.878Z,34.47
2019-05-02T14:20:38.272Z,34.73
2019-05-02T14:23:09.203Z,35.63
2019-05-02T14:25:38.623Z,33.50
2019-05-02T14:28:07.998Z,34.93
2019-05-02T14:30:43.302Z,33.50
2019-05-02T14:33:11.770Z,32.63
2019-05-02T14:35:42.615Z,34.13
2019-05-02T14:38:15.513Z,35.77
2019-05-02T14:40:52.015Z,37.63
2019-05-02T14:43:37.993Z,33.67
2019-05-02T14:46:06.095Z,34.67
2019-05-02T14:48:43.620Z,32.13
2019-05-02T14:51:11.943Z,35.60
2019-05-02T14:53:43.045Z,36.07
2019-05-02T14:56:22.960Z,36.87
2019-05-02T14:58:54.743Z,34.53
2019-05-02T15:01:26.060Z,36.63
2019-05-02T15:03:58.195Z,39.33
2019-05-02T15:06:25.402Z,38.50
2019-05-02T15:08:54.712Z,38.73
2019-05-02T15:11:30.782Z,37.13
2019-05-02T15:13:55.457Z,35.90
2019-05-02T15:16:39.020Z,38.93
2019-05-02T15:18:57.165Z,38.70
2019-05-02T15:21:28.272Z,42.53
2019-05-02T15:23:58.006Z,42.70
2019-05-02T15:26:31.273Z,49.63
2019-05-02T15:28:58.347Z,44.77
2019-05-02T15:31:32.415Z,44.27
2019-05-02T15:34:18.356Z,48.10
2019-05-02T15:36:47.640Z,55.97
2019-05-02T15:41:49.148Z,59.43
2019-05-02T15:44:18.927Z,62.87
2019-05-02T15:46:49.367Z,70.47
2019-05-02T15:49:18.686Z,63.63
2019-05-02T15:51:49.891Z,71.27
2019-05-02T15:54:20.413Z,73.03
2019-05-02T15:56:59.950Z,74.13
2019-05-02T15:59:37.452Z,75.60
2019-05-02T16:02:17.688Z,79.27
2019-05-02T16:04:48.686Z,93.23
2019-05-02T16:07:18.031Z,79.07
2019-05-02T16:09:47.287Z,88.63
2019-05-02T16:12:16.609Z,85.70
2019-05-02T16:14:45.850Z,90.17
2019-05-02T16:17:17.715Z,94.03
2019-05-02T16:19:47.787Z,90.57
2019-05-02T16:22:18.400Z,83.47
2019-05-02T16:24:48.924Z,103.93
2019-05-02T16:27:23.778Z,93.10
2019-05-02T16:29:49.802Z,87.23
2019-05-02T16:32:35.628Z,89.20
2019-05-02T16:35:12.316Z,88.33
2019-05-02T16:37:36.763Z,85.73
2019-05-02T16:40:09.348Z,97.47
2019-05-02T16:42:38.691Z,92.47
2019-05-02T16:45:09.313Z,95.53
2019-05-02T16:47:38.572Z,94.57
2019-05-02T16:50:09.506Z,87.00
2019-05-02T16:52:43.790Z,97.83
2019-05-02T16:55:13.676Z,88.03
2019-05-02T16:57:43.591Z,89.77
2019-05-02T17:00:16.237Z,83.23
2019-05-02T17:02:46.489Z,88.00
2019-05-02T17:05:16.321Z,84.43
2019-05-02T17:07:53.439Z,91.80
2019-05-02T17:10:24.391Z,83.40
2019-05-02T17:12:57.690Z,71.60
2019-05-02T17:15:31.017Z,75.03
2019-05-02T17:17:58.079Z,66.43
2019-05-02T17:20:27.634Z,58.50
2019-05-02T17:23:01.858Z,59.33
2019-05-02T17:25:27.870Z,45.50
2019-05-02T17:28:02.430Z,38.90
2019-05-02T17:30:33.686Z,42.40
2019-05-02T17:32:59.250Z,35.77
2019-05-02T17:35:28.597Z,35.20
2019-05-02T17:37:57.837Z,34.97
2019-05-02T17:40:27.315Z,35.47
2019-05-02T17:42:57.193Z,39.03
2019-05-02T17:45:27.873Z,36.73
2019-05-02T17:47:57.151Z,41.67
2019-05-02T17:50:28.234Z,44.20
2019-05-02T17:53:00.904Z,39.33
2019-05-02T17:55:32.788Z,45.80
2019-05-02T17:58:04.576Z,43.13
2019-05-02T18:00:33.862Z,39.13
2019-05-02T18:03:03.153Z,37.53
2019-05-02T18:05:35.679Z,38.97
2019-05-02T18:08:06.012Z,32.40
2019-05-02T18:10:35.260Z,40.90
2019-05-02T18:13:05.394Z,39.60
2019-05-02T18:15:36.286Z,36.67
2019-05-02T18:18:07.855Z,39.50
2019-05-02T18:20:42.910Z,34.07
2019-05-02T18:23:08.625Z,31.80
2019-05-02T18:25:37.972Z,34.17
2019-05-02T18:28:07.470Z,32.47
2019-05-02T18:30:36.792Z,35.37
2019-05-02T18:33:07.333Z,39.87
2019-05-02T18:35:37.420Z,37.33
2019-05-02T18:38:07.909Z,36.77
2019-05-02T18:40:38.722Z,42.37
2019-05-02T18:43:08.108Z,44.10
2019-05-02T18:45:37.394Z,48.03
2019-05-02T18:48:07.059Z,42.13
2019-05-02T18:50:44.556Z,52.50
2019-05-02T18:53:10.996Z,51.80
2019-05-02T18:55:42.138Z,56.83
2019-05-02T18:58:12.767Z,53.13
2019-05-02T19:00:42.467Z,57.93
2019-05-02T19:03:16.967Z,63.20
2019-05-02T19:05:46.509Z,64.00
2019-05-02T19:08:15.172Z,65.80
2019-05-02T19:11:01.347Z,74.87
2019-05-02T19:13:15.506Z,70.77
2019-05-02T19:15:48.806Z,71.90
2019-05-02T19:18:17.930Z,67.33
2019-05-02T19:20:57.442Z,75.10
2019-05-02T19:23:24.275Z,72.43
2019-05-02T19:25:53.818Z,78.17
2019-05-02T19:28:38.265Z,72.63
2019-05-02T19:31:06.916Z,73.07
2019-05-02T19:33:37.581Z,78.37
2019-05-02T19:36:07.668Z,69.60
2019-05-02T19:38:38.466Z,68.57
2019-05-02T19:41:09.352Z,68.90
2019-05-02T19:43:40.220Z,71.00
2019-05-02T19:46:11.976Z,66.07
2019-05-02T19:48:42.898Z,59.60
2019-05-02T19:51:18.412Z,67.13
2019-05-02T19:53:42.988Z,67.33
2019-05-02T19:56:12.884Z,73.27
2019-05-02T19:58:46.472Z,67.93
2019-05-02T20:01:17.375Z,76.47
2019-05-02T20:03:44.708Z,71.53
2019-05-02T20:06:14.349Z,66.80
2019-05-02T20:08:43.714Z,78.70
2019-05-02T20:11:13.010Z,121.70
2019-05-02T20:13:42.377Z,71.57
2019-05-02T20:16:16.318Z,75.00
2019-05-02T20:18:47.132Z,79.97
2019-05-02T20:21:27.586Z,75.93
2019-05-02T20:23:55.244Z,70.33
2019-05-02T20:26:24.863Z,73.00
2019-05-02T20:28:54.113Z,71.03
2019-05-02T20:31:23.453Z,70.43
2019-05-02T20:33:52.688Z,72.70
2019-05-02T20:36:22.743Z,63.33
2019-05-02T20:38:52.649Z,68.50
2019-05-02T20:41:22.518Z,67.90
2019-05-02T20:43:51.924Z,58.73
2019-05-02T20:46:22.595Z,52.07
2019-05-02T20:48:52.556Z,43.07
2019-05-02T20:51:22.723Z,36.77
2019-05-02T20:53:52.699Z,29.93
2019-05-02T20:56:23.048Z,25.97
2019-05-02T20:58:52.838Z,27.80
2019-05-02T21:01:22.307Z,20.30
2019-05-02T21:03:52.107Z,18.67
2019-05-02T21:06:38.593Z,19.10
2019-05-02T21:09:07.486Z,21.10
2019-05-02T21:11:37.155Z,18.27
2019-05-02T21:14:06.554Z,13.10
2019-05-02T21:16:35.820Z,14.13
2019-05-02T21:19:05.303Z,14.40
2019-05-02T21:21:34.703Z,11.70
2019-05-02T21:24:04.319Z,11.13
2019-05-02T21:26:33.630Z,13.07
2019-05-02T21:29:02.917Z,10.00
2019-05-02T21:31:32.212Z,11.23
2019-05-02T21:34:07.281Z,12.60
2019-05-02T21:36:36.067Z,9.93
2019-05-02T21:39:11.898Z,7.53
2019-05-02T21:41:42.386Z,8.23
2019-05-02T21:44:13.126Z,14.17
2019-05-02T21:46:42.535Z,10.87
2019-05-02T21:49:13.431Z,7.90
2019-05-02T21:51:44.334Z,5.83
2019-05-02T21:54:30.303Z,5.53
2019-05-02T21:57:02.673Z,9.50
2019-05-02T21:59:31.992Z,6.30
2019-05-02T22:02:02.748Z,5.70
2019-05-02T22:04:32.045Z,6.03
2019-05-02T22:07:02.055Z,6.10
2019-05-02T22:09:32.366Z,5.67
2019-05-02T22:12:01.814Z,11.23
2019-05-02T22:14:32.851Z,6.70
2019-05-02T22:17:02.335Z,7.50
2019-05-02T22:19:32.287Z,5.93
2019-05-02T22:22:01.741Z,8.43
2019-05-02T22:24:31.018Z,10.87
2019-05-02T22:27:01.907Z,11.23
2019-05-02T22:29:32.625Z,8.57
2019-05-02T22:32:03.271Z,9.60
2019-05-02T22:34:32.724Z,9.07
2019-05-02T22:37:04.988Z,9.70
2019-05-02T22:39:53.991Z,12.00
2019-05-02T22:42:23.410Z,11.43
2019-05-02T22:44:52.787Z,12.00
2019-05-02T22:47:22.729Z,14.60
2019-05-02T22:49:52.157Z,12.37
2019-05-02T22:52:21.896Z,19.67
2019-05-02T22:54:52.355Z,15.70
2019-05-02T22:57:22.554Z,16.70
2019-05-02T22:59:52.197Z,18.07
2019-05-02T23:02:22.053Z,17.27
2019-05-02T23:04:52.570Z,18.27
2019-05-02T23:07:22.582Z,18.13
2019-05-02T23:09:52.758Z,19.03
2019-05-02T23:12:24.919Z,18.63
2019-05-02T23:14:56.306Z,18.80
2019-05-02T23:17:25.576Z,17.10
2019-05-02T23:19:54.823Z,16.70
2019-05-02T23:22:24.147Z,19.53
2019-05-02T23:24:55.026Z,18.80
2019-05-02T23:27:42.389Z,20.30
2019-05-02T23:30:14.392Z,17.87
2019-05-02T23:32:43.627Z,19.50
2019-05-02T23:35:13.195Z,15.77
2019-05-02T23:37:42.545Z,15.20
2019-05-02T23:40:12.519Z,14.23
2019-05-02T23:42:41.989Z,15.93
2019-05-02T23:45:12.122Z,10.10
2019-05-02T23:47:42.159Z,9.90
2019-05-02T23:50:12.151Z,9.67
2019-05-02T23:52:41.607Z,8.50
2019-05-02T23:55:12.242Z,7.30
2019-05-02T23:57:42.118Z,8.60
